Time;durP1;ratioP1;P1;durP2;ratioP2;P2;SDS_P1;SDS_P2;PMS_P1;PMS_P2;Temp;Humidity;BMP_temperature;BMP_pressure;BME280_temperature;BME280_humidity;BME280_pressure;Samples;Min_cycle;Max_cycle;Signal;HPM_P1;HPM_P2
2023/06/04 00:02:00;;;;;;;5.10;3.00;;;;;;;;;;5081897;28;20231;-54
2023/06/04 00:04:27;;;;;;;5.65;3.40;;;;;;;;;;5087378;28;20279;-52
2023/06/04 00:06:53;;;;;;;3.85;3.35;;;;;;;;;;5084678;28;20234;-54
2023/06/04 00:09:20;;;;;;;3.45;3.00;;;;;;;;;;5086179;28;20883;-51
2023/06/04 00:11:48;;;;;;;5.70;3.35;;;;;;;;;;5084675;28;20765;-53
2023/06/04 00:14:14;;;;;;;5.88;3.50;;;;;;;;;;5085927;28;20246;-52
2023/06/04 00:16:42;;;;;;;3.78;3.15;;;;;;;;;;5072186;28;20664;-52
2023/06/04 00:19:09;;;;;;;3.40;2.97;;;;;;;;;;5082247;28;20233;-52
2023/06/04 00:21:35;;;;;;;3.40;3.10;;;;;;;;;;5082241;28;20329;-51
2023/06/04 00:24:02;;;;;;;3.38;2.88;;;;;;;;;;5073575;28;20325;-51
2023/06/04 00:26:29;;;;;;;3.53;2.72;;;;;;;;;;5071348;28;20803;-53
2023/06/04 00:28:57;;;;;;;3.20;2.90;;;;;;;;;;5080139;28;20240;-54
2023/06/04 00:31:23;;;;;;;3.40;3.10;;;;;;;;;;5082083;28;20229;-51
2023/06/04 00:33:50;;;;;;;3.05;2.28;;;;;;;;;;5082331;28;20230;-51
2023/06/04 00:36:17;;;;;;;3.90;3.50;;;;;;;;;;5084641;28;20317;-51
2023/06/04 00:38:43;;;;;;;3.63;2.80;;;;;;;;;;5067636;28;20234;-58
2023/06/04 00:41:10;;;;;;;2.70;2.42;;;;;;;;;;5070608;28;20313;-51
2023/06/04 00:43:36;;;;;;;3.30;2.63;;;;;;;;;;5080390;28;20777;-51
2023/06/04 00:46:04;;;;;;;4.63;2.78;;;;;;;;;;5079835;28;20253;-52
2023/06/04 00:48:31;;;;;;;2.75;2.38;;;;;;;;;;5073534;28;21182;-52
2023/06/04 00:50:58;;;;;;;4.03;2.65;;;;;;;;;;5084223;28;20333;-51
2023/06/04 00:53:25;;;;;;;3.60;2.30;;;;;;;;;;5082350;28;20237;-53
2023/06/04 00:55:52;;;;;;;4.18;2.83;;;;;;;;;;5083412;28;20233;-53
2023/06/04 00:58:20;;;;;;;3.65;2.47;;;;;;;;;;5078386;28;20234;-52
2023/06/04 01:00:46;;;;;;;3.13;2.40;;;;;;;;;;5068068;28;20860;-56
2023/06/04 01:03:18;;;;;;;3.13;2.47;;;;;;;;;;5070061;28;20236;-54
2023/06/04 01:05:49;;;;;;;2.88;2.63;;;;;;;;;;5080989;28;20415;-51
2023/06/04 01:08:15;;;;;;;3.38;2.70;;;;;;;;;;5076335;28;20230;-53
2023/06/04 01:10:51;;;;;;;4.35;2.78;;;;;;;;;;5081624;28;20241;-52
2023/06/04 01:13:17;;;;;;;3.55;2.55;;;;;;;;;;5073166;28;20329;-51
2023/06/04 01:15:44;;;;;;;3.78;2.78;;;;;;;;;;5079855;28;20317;-53
2023/06/04 01:18:11;;;;;;;2.80;2.50;;;;;;;;;;5084242;28;20414;-52
2023/06/04 01:20:41;;;;;;;2.35;2.15;;;;;;;;;;5075406;28;20946;-52
2023/06/04 01:23:15;;;;;;;3.70;2.70;;;;;;;;;;5069985;28;20246;-52
2023/06/04 01:25:45;;;;;;;2.65;2.17;;;;;;;;;;5072478;28;20227;-52
2023/06/04 01:28:12;;;;;;;3.67;2.60;;;;;;;;;;5081389;28;20245;-57
2023/06/04 01:30:43;;;;;;;3.17;2.50;;;;;;;;;;5083946;28;20304;-51
2023/06/04 01:33:10;;;;;;;4.07;2.50;;;;;;;;;;5086058;28;20234;-53
2023/06/04 01:35:37;;;;;;;2.60;2.40;;;;;;;;;;5085199;28;20732;-53
2023/06/04 01:38:05;;;;;;;5.28;2.72;;;;;;;;;;5086729;28;20230;-51
2023/06/04 01:40:32;;;;;;;3.03;2.80;;;;;;;;;;5074257;28;20283;-52
2023/06/04 01:42:58;;;;;;;2.50;2.30;;;;;;;;;;5080416;28;20230;-52
2023/06/04 01:45:26;;;;;;;4.18;2.60;;;;;;;;;;5081030;28;20234;-51
2023/06/04 01:47:52;;;;;;;2.78;2.30;;;;;;;;;;5083695;28;20656;-51
2023/06/04 01:50:19;;;;;;;2.58;2.28;;;;;;;;;;5077674;28;20318;-52
2023/06/04 01:52:45;;;;;;;5.82;2.20;;;;;;;;;;5083852;28;20258;-52
2023/06/04 01:55:14;;;;;;;2.60;2.05;;;;;;;;;;5086222;28;20300;-51
2023/06/04 01:57:41;;;;;;;4.47;2.30;;;;;;;;;;5078322;28;20231;-51
2023/06/04 02:00:10;;;;;;;2.95;2.50;;;;;;;;;;5083471;28;20232;-51
2023/06/04 02:02:37;;;;;;;2.10;1.90;;;;;;;;;;5078552;28;20241;-51
2023/06/04 02:05:03;;;;;;;2.63;2.10;;;;;;;;;;5080780;28;20230;-51
2023/06/04 02:07:31;;;;;;;3.80;2.47;;;;;;;;;;5081446;28;20233;-53
2023/06/04 02:09:57;;;;;;;3.35;2.10;;;;;;;;;;5079281;28;20293;-53
2023/06/04 02:12:26;;;;;;;4.32;2.50;;;;;;;;;;5075547;28;20277;-53
2023/06/04 02:14:52;;;;;;;2.25;2.03;;;;;;;;;;5070613;28;20239;-51
2023/06/04 02:17:20;;;;;;;2.15;1.95;;;;;;;;;;5083716;28;20300;-53
2023/06/04 02:19:49;;;;;;;2.15;1.88;;;;;;;;;;5079448;28;20235;-51
2023/06/04 02:22:16;;;;;;;2.70;2.30;;;;;;;;;;5078687;28;20237;-52
2023/06/04 02:24:43;;;;;;;5.20;2.28;;;;;;;;;;5081400;28;20318;-53
2023/06/04 02:27:10;;;;;;;3.08;2.33;;;;;;;;;;5087890;28;20375;-52
2023/06/04 02:29:38;;;;;;;3.10;2.78;;;;;;;;;;5089651;28;22873;-51
2023/06/04 02:32:05;;;;;;;3.47;2.35;;;;;;;;;;5078205;28;20226;-52
2023/06/04 02:34:33;;;;;;;2.20;2.00;;;;;;;;;;5087051;28;20241;-52
2023/06/04 02:37:00;;;;;;;3.65;2.65;;;;;;;;;;5086415;28;20223;-52
2023/06/04 02:39:27;;;;;;;2.45;1.80;;;;;;;;;;5077796;28;20228;-53
2023/06/04 02:41:53;;;;;;;2.20;2.00;;;;;;;;;;5076541;28;20321;-51
2023/06/04 02:44:20;;;;;;;2.45;2.13;;;;;;;;;;5082792;27;20326;-53
2023/06/04 02:46:48;;;;;;;2.40;1.73;;;;;;;;;;5086372;28;20233;-52
2023/06/04 02:49:16;;;;;;;4.05;2.10;;;;;;;;;;5084759;28;20226;-51
2023/06/04 02:51:43;;;;;;;2.20;2.00;;;;;;;;;;5083756;28;20848;-51
2023/06/04 02:54:09;;;;;;;3.88;2.33;;;;;;;;;;5086626;28;20284;-51
2023/06/04 02:56:37;;;;;;;3.00;2.30;;;;;;;;;;5085247;28;20230;-52
2023/06/04 02:59:04;;;;;;;2.20;1.80;;;;;;;;;;5075390;28;20255;-52
2023/06/04 03:01:31;;;;;;;2.72;2.25;;;;;;;;;;5077379;28;20227;-52
2023/06/04 03:04:03;;;;;;;3.00;1.98;;;;;;;;;;5080900;28;20669;-52
2023/06/04 03:06:31;;;;;;;3.28;2.25;;;;;;;;;;5080810;28;20285;-51
2023/06/04 03:08:57;;;;;;;2.67;2.43;;;;;;;;;;5081626;28;20234;-50
2023/06/04 03:11:24;;;;;;;3.33;2.35;;;;;;;;;;5078749;28;20595;-53
2023/06/04 03:13:51;;;;;;;2.27;2.07;;;;;;;;;;5078989;28;20853;-53
2023/06/04 03:16:18;;;;;;;3.50;2.33;;;;;;;;;;5074844;28;20296;-53
2023/06/04 03:18:45;;;;;;;3.63;2.85;;;;;;;;;;5083391;28;20461;-54
2023/06/04 03:21:13;;;;;;;3.15;2.22;;;;;;;;;;5073814;28;20226;-51
2023/06/04 03:23:40;;;;;;;3.00;2.10;;;;;;;;;;5081366;28;20273;-51
2023/06/04 03:26:07;;;;;;;2.17;1.88;;;;;;;;;;5078539;28;20234;-51
2023/06/04 03:28:34;;;;;;;3.53;2.70;;;;;;;;;;5080378;28;20258;-52
2023/06/04 03:31:02;;;;;;;3.67;2.70;;;;;;;;;;5084138;28;20234;-52
2023/06/04 03:33:28;;;;;;;3.13;2.37;;;;;;;;;;5078563;28;20231;-51
2023/06/04 03:35:57;;;;;;;1.83;1.73;;;;;;;;;;5076017;28;20233;-51
2023/06/04 03:38:25;;;;;;;1.80;1.70;;;;;;;;;;5081395;28;20230;-51
2023/06/04 03:40:52;;;;;;;2.60;2.40;;;;;;;;;;5077378;28;20604;-52
2023/06/04 03:43:19;;;;;;;2.15;1.88;;;;;;;;;;5078241;28;20249;-51
2023/06/04 03:45:46;;;;;;;2.25;2.05;;;;;;;;;;5077635;28;20783;-52
2023/06/04 03:48:13;;;;;;;2.47;2.20;;;;;;;;;;5079261;28;20396;-51
2023/06/04 03:50:39;;;;;;;2.23;2.10;;;;;;;;;;5073712;28;20226;-51
2023/06/04 03:53:06;;;;;;;3.67;2.43;;;;;;;;;;5079570;28;20230;-51
2023/06/04 03:55:34;;;;;;;2.50;2.30;;;;;;;;;;5080012;28;20245;-53
2023/06/04 03:58:01;;;;;;;2.50;2.27;;;;;;;;;;5081291;28;20299;-51
2023/06/04 04:00:28;;;;;;;3.83;2.10;;;;;;;;;;5081159;28;20226;-51
2023/06/04 04:02:56;;;;;;;3.13;1.90;;;;;;;;;;5082616;28;20329;-54
2023/06/04 04:05:22;;;;;;;3.13;2.13;;;;;;;;;;5077030;28;20233;-52
2023/06/04 04:07:49;;;;;;;2.35;1.83;;;;;;;;;;5080549;28;20237;-52
2023/06/04 04:10:16;;;;;;;3.00;2.10;;;;;;;;;;5079239;28;20576;-51
2023/06/04 04:12:44;;;;;;;4.00;2.53;;;;;;;;;;5076435;28;20244;-51
2023/06/04 04:15:11;;;;;;;4.20;2.13;;;;;;;;;;5077086;28;20238;-52
2023/06/04 04:17:37;;;;;;;2.45;1.88;;;;;;;;;;5079868;28;21236;-52
2023/06/04 04:20:05;;;;;;;2.80;2.20;;;;;;;;;;5079207;28;20305;-52
2023/06/04 04:22:32;;;;;;;1.92;1.83;;;;;;;;;;5076547;28;20262;-52
2023/06/04 04:25:01;;;;;;;2.50;2.30;;;;;;;;;;5081022;28;20246;-53
2023/06/04 04:27:30;;;;;;;3.30;1.90;;;;;;;;;;5072512;28;20239;-53
2023/06/04 04:30:00;;;;;;;2.85;2.00;;;;;;;;;;5082056;28;20246;-51
2023/06/04 04:32:27;;;;;;;4.97;2.25;;;;;;;;;;5077046;28;20660;-51
2023/06/04 04:34:54;;;;;;;2.58;2.22;;;;;;;;;;5075153;28;20806;-51
2023/06/04 04:37:22;;;;;;;2.63;2.42;;;;;;;;;;5077824;28;20223;-51
2023/06/04 04:39:51;;;;;;;2.35;2.03;;;;;;;;;;5078802;28;20238;-51
2023/06/04 04:42:18;;;;;;;2.50;2.10;;;;;;;;;;5079495;28;20229;-57
2023/06/04 04:44:47;;;;;;;3.97;2.60;;;;;;;;;;5077753;28;20322;-51
2023/06/04 04:47:15;;;;;;;3.55;2.28;;;;;;;;;;5082741;28;20237;-52
2023/06/04 04:49:42;;;;;;;3.15;1.77;;;;;;;;;;5088834;28;20234;-53
2023/06/04 04:52:09;;;;;;;3.15;2.05;;;;;;;;;;5085095;28;20253;-55
2023/06/04 04:54:35;;;;;;;2.38;2.17;;;;;;;;;;5090475;28;20231;-52
2023/06/04 04:57:02;;;;;;;3.13;1.85;;;;;;;;;;5089541;28;20317;-52
2023/06/04 04:59:29;;;;;;;4.43;2.38;;;;;;;;;;5092034;28;20223;-50
2023/06/04 05:01:55;;;;;;;4.60;2.67;;;;;;;;;;5080444;28;20230;-57
2023/06/04 05:04:23;;;;;;;4.72;2.42;;;;;;;;;;5084711;28;20250;-52
2023/06/04 05:06:50;;;;;;;2.22;2.03;;;;;;;;;;5084779;28;20233;-50
2023/06/04 05:09:17;;;;;;;4.75;2.17;;;;;;;;;;5080913;28;20227;-54
2023/06/04 05:11:43;;;;;;;2.20;2.00;;;;;;;;;;5081147;28;20281;-52
2023/06/04 05:14:10;;;;;;;2.28;1.85;;;;;;;;;;5077212;28;20322;-52
2023/06/04 05:16:37;;;;;;;2.25;1.98;;;;;;;;;;5085290;28;20284;-53
2023/06/04 05:19:04;;;;;;;2.45;2.25;;;;;;;;;;5081292;28;20645;-51
2023/06/04 05:21:32;;;;;;;2.20;2.00;;;;;;;;;;5076583;28;20245;-52
2023/06/04 05:23:59;;;;;;;4.57;2.50;;;;;;;;;;5074431;28;20241;-52
2023/06/04 05:26:28;;;;;;;4.07;2.30;;;;;;;;;;5084160;28;20316;-52
2023/06/04 05:28:54;;;;;;;2.92;2.13;;;;;;;;;;5082869;28;20230;-51
2023/06/04 05:31:21;;;;;;;2.65;2.22;;;;;;;;;;5078185;28;20298;-51
2023/06/04 05:33:49;;;;;;;2.28;2.08;;;;;;;;;;5082030;28;20336;-53
2023/06/04 05:36:16;;;;;;;1.98;1.67;;;;;;;;;;5080840;28;20258;-51
2023/06/04 05:38:44;;;;;;;2.40;2.15;;;;;;;;;;5079296;28;20763;-51
2023/06/04 05:41:12;;;;;;;2.35;2.15;;;;;;;;;;5084817;28;20226;-50
2023/06/04 05:43:38;;;;;;;2.58;1.98;;;;;;;;;;5084101;28;20234;-51
2023/06/04 05:46:07;;;;;;;2.30;1.95;;;;;;;;;;5079793;28;20230;-51
2023/06/04 05:48:34;;;;;;;3.28;1.95;;;;;;;;;;5072516;28;20223;-52
2023/06/04 05:51:00;;;;;;;2.35;2.15;;;;;;;;;;5080488;28;20301;-50
2023/06/04 05:53:27;;;;;;;1.70;1.60;;;;;;;;;;5079247;28;20227;-52
2023/06/04 05:55:55;;;;;;;1.80;1.70;;;;;;;;;;5085192;28;20325;-50
2023/06/04 05:58:22;;;;;;;1.85;1.65;;;;;;;;;;5083338;28;20232;-51
2023/06/04 06:00:50;;;;;;;3.38;2.33;;;;;;;;;;5072459;28;20301;-51
2023/06/04 06:03:16;;;;;;;2.13;1.75;;;;;;;;;;5083314;28;20287;-50
2023/06/04 06:05:43;;;;;;;2.38;1.95;;;;;;;;;;5078860;28;20644;-52
2023/06/04 06:08:10;;;;;;;2.33;2.13;;;;;;;;;;5079102;28;20325;-51
2023/06/04 06:10:36;;;;;;;3.67;2.45;;;;;;;;;;5086543;28;20292;-52
2023/06/04 06:13:04;;;;;;;4.70;2.13;;;;;;;;;;5084427;28;20321;-52
2023/06/04 06:15:32;;;;;;;2.13;1.92;;;;;;;;;;5083726;28;20254;-51
2023/06/04 06:17:59;;;;;;;2.95;2.25;;;;;;;;;;5083243;28;20238;-52
2023/06/04 06:20:26;;;;;;;1.95;1.83;;;;;;;;;;5069175;28;20234;-51
2023/06/04 06:22:53;;;;;;;2.67;2.08;;;;;;;;;;5075993;28;20234;-51
2023/06/04 06:25:19;;;;;;;2.55;1.95;;;;;;;;;;5077883;28;20234;-53
2023/06/04 06:27:46;;;;;;;1.70;1.60;;;;;;;;;;5080501;28;20749;-53
2023/06/04 06:30:14;;;;;;;2.80;2.00;;;;;;;;;;5083719;28;20314;-52
2023/06/04 06:32:40;;;;;;;2.38;1.88;;;;;;;;;;5082405;28;20238;-51
2023/06/04 06:35:08;;;;;;;3.28;1.50;;;;;;;;;;5078273;28;20257;-51
2023/06/04 06:37:34;;;;;;;4.40;1.75;;;;;;;;;;5078315;27;20314;-52
2023/06/04 06:40:01;;;;;;;2.70;1.65;;;;;;;;;;5083998;28;20223;-53
2023/06/04 06:42:27;;;;;;;1.85;1.55;;;;;;;;;;5083262;28;20806;-53
2023/06/04 06:44:54;;;;;;;2.15;1.73;;;;;;;;;;5083041;28;20230;-53
2023/06/04 06:47:22;;;;;;;3.50;1.52;;;;;;;;;;5082523;28;20254;-52
2023/06/04 06:49:49;;;;;;;1.85;1.45;;;;;;;;;;5081723;28;20233;-52
2023/06/04 06:52:19;;;;;;;1.63;1.52;;;;;;;;;;5081661;28;20635;-51
2023/06/04 06:54:46;;;;;;;4.18;1.60;;;;;;;;;;5080654;28;20254;-52
2023/06/04 06:57:13;;;;;;;1.23;1.15;;;;;;;;;;5085611;28;20509;-52
2023/06/04 06:59:39;;;;;;;2.20;1.10;;;;;;;;;;5083102;28;20226;-52
2023/06/04 07:02:06;;;;;;;1.85;1.50;;;;;;;;;;5082805;28;20700;-51
2023/06/04 07:04:34;;;;;;;2.13;1.60;;;;;;;;;;5079935;28;20349;-52
2023/06/04 07:07:01;;;;;;;3.03;1.27;;;;;;;;;;5081991;28;20602;-51
2023/06/04 07:09:27;;;;;;;4.18;1.73;;;;;;;;;;5084067;28;20222;-52
2023/06/04 07:11:54;;;;;;;1.48;1.38;;;;;;;;;;5079918;28;20238;-51
2023/06/04 07:14:21;;;;;;;2.78;1.38;;;;;;;;;;5087585;28;20226;-52
2023/06/04 07:16:47;;;;;;;1.67;1.13;;;;;;;;;;5082680;28;20317;-52
2023/06/04 07:19:14;;;;;;;1.52;1.23;;;;;;;;;;5080587;28;20226;-51
2023/06/04 07:21:42;;;;;;;1.10;1.00;;;;;;;;;;5078792;28;20240;-50
2023/06/04 07:24:09;;;;;;;3.80;1.17;;;;;;;;;;5086494;28;20234;-54
2023/06/04 07:26:35;;;;;;;1.13;1.02;;;;;;;;;;5085316;28;20253;-52
2023/06/04 07:29:02;;;;;;;1.95;1.45;;;;;;;;;;5080601;28;20692;-56
2023/06/04 07:31:28;;;;;;;3.25;1.40;;;;;;;;;;5084034;28;20798;-52
2023/06/04 07:33:55;;;;;;;1.80;1.27;;;;;;;;;;5090330;28;20284;-53
2023/06/04 07:36:22;;;;;;;1.05;1.05;;;;;;;;;;5079478;28;20250;-51
2023/06/04 07:38:50;;;;;;;1.05;0.95;;;;;;;;;;5081503;28;20231;-52
2023/06/04 07:41:17;;;;;;;1.33;1.00;;;;;;;;;;5085671;28;20309;-52
2023/06/04 07:43:44;;;;;;;1.05;0.93;;;;;;;;;;5083643;28;20246;-51
2023/06/04 07:46:11;;;;;;;2.88;1.08;;;;;;;;;;5082974;28;20712;-51
2023/06/04 07:48:37;;;;;;;2.67;0.80;;;;;;;;;;5084133;28;20803;-52
2023/06/04 07:51:04;;;;;;;0.75;0.75;;;;;;;;;;5089217;28;20227;-51
2023/06/04 07:53:31;;;;;;;2.58;0.70;;;;;;;;;;5094250;27;20326;-51
2023/06/04 07:55:59;;;;;;;3.10;1.17;;;;;;;;;;5086404;28;21668;-52
2023/06/04 07:58:25;;;;;;;0.77;0.77;;;;;;;;;;5080475;28;20223;-52
2023/06/04 08:00:51;;;;;;;1.52;1.10;;;;;;;;;;5077227;28;20310;-52
2023/06/04 08:03:20;;;;;;;0.88;0.85;;;;;;;;;;5080685;28;20233;-52
2023/06/04 08:05:46;;;;;;;4.88;2.92;;;;;;;;;;5080916;28;20233;-52
2023/06/04 08:08:13;;;;;;;4.13;1.42;;;;;;;;;;5085191;28;20724;-51
2023/06/04 08:10:40;;;;;;;1.83;0.82;;;;;;;;;;5084216;28;20378;-53
2023/06/04 08:13:08;;;;;;;2.88;1.00;;;;;;;;;;5082040;28;20233;-51
2023/06/04 08:15:35;;;;;;;2.30;0.98;;;;;;;;;;5081960;28;20724;-56
2023/06/04 08:18:01;;;;;;;0.98;0.90;;;;;;;;;;5078689;28;20316;-52
2023/06/04 08:20:27;;;;;;;11.10;9.85;;;;;;;;;;5085298;28;20322;-52
2023/06/04 08:22:54;;;;;;;1.98;1.77;;;;;;;;;;5081908;28;20235;-51
2023/06/04 08:25:20;;;;;;;0.85;0.73;;;;;;;;;;5082595;28;20223;-51
2023/06/04 08:27:46;;;;;;;1.73;1.13;;;;;;;;;;5084779;28;20258;-51
2023/06/04 08:30:14;;;;;;;1.13;1.02;;;;;;;;;;5082410;28;20226;-51
2023/06/04 08:32:41;;;;;;;2.97;1.00;;;;;;;;;;5082823;28;20341;-52
2023/06/04 08:35:08;;;;;;;1.02;0.90;;;;;;;;;;5081586;28;20234;-51
2023/06/04 08:37:34;;;;;;;0.80;0.80;;;;;;;;;;5083370;28;20231;-51
2023/06/04 08:40:00;;;;;;;1.25;1.10;;;;;;;;;;5075168;28;20245;-52
2023/06/04 08:42:30;;;;;;;1.10;0.95;;;;;;;;;;5081303;28;20236;-52
2023/06/04 08:44:57;;;;;;;1.20;1.15;;;;;;;;;;5082657;28;20894;-53
2023/06/04 08:47:25;;;;;;;1.58;1.00;;;;;;;;;;5083167;28;20309;-51
2023/06/04 08:49:53;;;;;;;1.05;0.80;;;;;;;;;;5085998;28;20878;-52
2023/06/04 08:52:21;;;;;;;1.48;0.95;;;;;;;;;;5084558;27;20256;-53
2023/06/04 08:54:49;;;;;;;3.00;0.95;;;;;;;;;;5084640;28;20257;-50
2023/06/04 08:57:16;;;;;;;1.20;1.10;;;;;;;;;;5081519;28;20304;-51
2023/06/04 08:59:43;;;;;;;1.60;1.27;;;;;;;;;;5085646;28;20222;-52
2023/06/04 09:02:09;;;;;;;0.93;0.93;;;;;;;;;;5086525;28;20654;-53
2023/06/04 09:04:37;;;;;;;1.67;0.77;;;;;;;;;;5084140;28;20271;-51
2023/06/04 09:07:04;;;;;;;1.25;0.90;;;;;;;;;;5087941;28;20776;-51
2023/06/04 09:09:32;;;;;;;1.40;0.90;;;;;;;;;;5085292;28;20291;-51
2023/06/04 09:11:59;;;;;;;0.88;0.80;;;;;;;;;;5084089;28;20249;-52
2023/06/04 09:14:26;;;;;;;5.35;1.15;;;;;;;;;;5085580;27;20223;-50
2023/06/04 09:16:54;;;;;;;1.08;0.90;;;;;;;;;;5080485;28;20242;-52
2023/06/04 09:19:20;;;;;;;1.00;0.80;;;;;;;;;;5085958;28;20321;-51
2023/06/04 09:21:49;;;;;;;1.25;1.15;;;;;;;;;;5082912;28;20229;-52
2023/06/04 09:24:16;;;;;;;1.00;0.85;;;;;;;;;;5083117;28;20227;-52
2023/06/04 09:26:42;;;;;;;2.50;1.60;;;;;;;;;;5086117;28;20257;-52
2023/06/04 09:29:08;;;;;;;2.03;0.80;;;;;;;;;;5086087;28;20830;-53
2023/06/04 09:31:37;;;;;;;0.77;0.77;;;;;;;;;;5087305;28;20237;-52
2023/06/04 09:34:04;;;;;;;1.92;0.65;;;;;;;;;;5085548;28;20227;-52
2023/06/04 09:36:31;;;;;;;1.17;0.98;;;;;;;;;;5083785;28;20231;-53
2023/06/04 09:38:59;;;;;;;1.25;1.15;;;;;;;;;;5082407;28;20322;-51
2023/06/04 09:41:27;;;;;;;1.88;1.00;;;;;;;;;;5086328;28;20230;-52
2023/06/04 09:43:59;;;;;;;1.33;1.08;;;;;;;;;;5083839;28;20926;-52
2023/06/04 09:46:26;;;;;;;1.15;1.05;;;;;;;;;;5090707;28;20282;-54
2023/06/04 09:48:59;;;;;;;2.08;0.85;;;;;;;;;;5093755;28;20266;-54
2023/06/04 09:51:26;;;;;;;0.75;0.70;;;;;;;;;;5090703;28;20571;-52
2023/06/04 09:53:55;;;;;;;1.60;1.08;;;;;;;;;;5092777;28;20356;-52
2023/06/04 09:56:23;;;;;;;1.05;0.95;;;;;;;;;;5091875;28;20314;-51
2023/06/04 09:58:50;;;;;;;2.92;0.90;;;;;;;;;;5084508;28;20240;-51
2023/06/04 10:01:16;;;;;;;0.93;0.80;;;;;;;;;;5085800;28;20317;-52
2023/06/04 10:03:47;;;;;;;3.38;0.82;;;;;;;;;;5085215;28;20230;-50
2023/06/04 10:06:15;;;;;;;0.70;0.70;;;;;;;;;;5085773;28;20223;-51
2023/06/04 10:08:42;;;;;;;0.90;0.90;;;;;;;;;;5086015;28;20329;-54
2023/06/04 10:11:09;;;;;;;1.88;0.73;;;;;;;;;;5083527;28;20353;-51
2023/06/04 10:13:39;;;;;;;3.85;1.00;;;;;;;;;;5082421;28;20241;-51
2023/06/04 10:16:06;;;;;;;1.15;1.00;;;;;;;;;;5082559;28;20231;-52
2023/06/04 10:18:34;;;;;;;2.00;1.35;;;;;;;;;;5085587;28;20314;-51
2023/06/04 10:21:00;;;;;;;1.25;1.17;;;;;;;;;;5087412;28;20321;-52
2023/06/04 10:23:29;;;;;;;1.25;1.05;;;;;;;;;;5093111;28;20682;-52
2023/06/04 10:25:55;;;;;;;0.75;0.75;;;;;;;;;;5085438;28;20314;-54
2023/06/04 10:28:23;;;;;;;1.95;1.10;;;;;;;;;;5089374;28;20233;-53
2023/06/04 10:30:51;;;;;;;2.45;1.20;;;;;;;;;;5092364;28;20257;-52
2023/06/04 10:33:19;;;;;;;1.10;0.95;;;;;;;;;;5083899;28;20223;-52
2023/06/04 10:35:46;;;;;;;1.10;1.00;;;;;;;;;;5086358;28;20239;-51
2023/06/04 10:38:14;;;;;;;2.33;1.23;;;;;;;;;;5085969;28;20241;-51
2023/06/04 10:40:40;;;;;;;0.80;0.75;;;;;;;;;;5086208;28;20226;-52
2023/06/04 10:43:07;;;;;;;1.58;0.90;;;;;;;;;;5084170;28;20239;-51
2023/06/04 10:45:34;;;;;;;2.15;0.98;;;;;;;;;;5080076;28;20238;-52
2023/06/04 10:48:02;;;;;;;1.20;1.10;;;;;;;;;;5084695;28;20765;-50
2023/06/04 10:50:28;;;;;;;1.77;0.80;;;;;;;;;;5085155;28;20552;-55
2023/06/04 10:52:57;;;;;;;1.88;0.90;;;;;;;;;;5082247;28;20240;-52
2023/06/04 10:55:23;;;;;;;1.00;0.98;;;;;;;;;;5088993;28;20256;-52
2023/06/04 10:57:53;;;;;;;1.67;1.20;;;;;;;;;;5086522;28;20245;-53
2023/06/04 11:00:19;;;;;;;2.65;1.50;;;;;;;;;;5082868;28;20309;-52
2023/06/04 11:02:53;;;;;;;1.75;0.98;;;;;;;;;;5080144;28;20238;-51
2023/06/04 11:05:21;;;;;;;3.00;1.27;;;;;;;;;;5085044;28;20241;-51
2023/06/04 11:07:48;;;;;;;0.82;0.82;;;;;;;;;;5083737;28;20242;-52
2023/06/04 11:10:15;;;;;;;1.27;0.90;;;;;;;;;;5085407;28;20230;-52
2023/06/04 11:12:42;;;;;;;1.65;0.73;;;;;;;;;;5083236;28;20249;-53
2023/06/04 11:15:08;;;;;;;1.48;1.00;;;;;;;;;;5084082;28;20747;-52
2023/06/04 11:17:36;;;;;;;1.35;0.90;;;;;;;;;;5081793;28;20288;-52
2023/06/04 11:20:02;;;;;;;11.00;1.40;;;;;;;;;;5085104;28;20229;-52
2023/06/04 11:22:30;;;;;;;0.90;0.90;;;;;;;;;;5083247;28;20237;-52
2023/06/04 11:24:58;;;;;;;0.80;0.80;;;;;;;;;;5085224;27;20766;-53
2023/06/04 11:27:25;;;;;;;1.45;1.05;;;;;;;;;;5082983;28;20250;-52
2023/06/04 11:29:52;;;;;;;2.00;1.08;;;;;;;;;;5085125;28;20317;-52
2023/06/04 11:32:22;;;;;;;1.10;1.00;;;;;;;;;;5080133;28;20223;-53
2023/06/04 11:34:48;;;;;;;1.30;1.08;;;;;;;;;;5080832;28;20595;-51
2023/06/04 11:37:14;;;;;;;1.67;1.10;;;;;;;;;;5081451;27;20233;-53
2023/06/04 11:39:44;;;;;;;2.05;0.93;;;;;;;;;;5084555;28;20234;-52
2023/06/04 11:42:11;;;;;;;2.22;1.17;;;;;;;;;;5080436;28;20246;-53
2023/06/04 11:44:37;;;;;;;0.73;0.73;;;;;;;;;;5083539;28;20329;-51
2023/06/04 11:47:06;;;;;;;3.08;1.27;;;;;;;;;;5086645;28;20236;-50
2023/06/04 11:49:32;;;;;;;1.83;1.30;;;;;;;;;;5084796;28;20651;-53
2023/06/04 11:51:58;;;;;;;1.35;0.82;;;;;;;;;;5077713;28;20241;-50
2023/06/04 11:54:25;;;;;;;1.02;0.90;;;;;;;;;;5082353;28;20750;-53
2023/06/04 11:56:53;;;;;;;1.67;1.13;;;;;;;;;;5082783;28;20337;-52
2023/06/04 11:59:20;;;;;;;1.83;1.00;;;;;;;;;;5083398;28;20317;-52
2023/06/04 12:01:48;;;;;;;2.78;1.10;;;;;;;;;;5071621;28;20321;-52
2023/06/04 12:04:15;;;;;;;2.67;0.95;;;;;;;;;;5084287;28;20335;-51
2023/06/04 12:06:51;;;;;;;2.00;1.42;;;;;;;;;;5082885;28;20772;-51
2023/06/04 12:09:20;;;;;;;1.13;1.05;;;;;;;;;;5083551;28;20345;-52
2023/06/04 12:11:47;;;;;;;1.00;0.90;;;;;;;;;;5082481;28;20234;-53
2023/06/04 12:14:18;;;;;;;1.25;0.93;;;;;;;;;;5082951;28;20238;-53
2023/06/04 12:16:45;;;;;;;2.45;1.25;;;;;;;;;;5079339;28;20230;-52
2023/06/04 12:19:12;;;;;;;1.20;1.10;;;;;;;;;;5080530;28;20313;-52
2023/06/04 12:21:38;;;;;;;2.55;1.27;;;;;;;;;;5083347;28;20234;-51
2023/06/04 12:24:09;;;;;;;1.05;1.02;;;;;;;;;;5083799;28;20751;-52
2023/06/04 12:26:37;;;;;;;1.23;1.13;;;;;;;;;;5084700;28;20244;-52
2023/06/04 12:29:10;;;;;;;1.20;1.00;;;;;;;;;;5077270;28;20261;-52
2023/06/04 12:31:37;;;;;;;1.25;1.10;;;;;;;;;;5084176;28;20226;-51
2023/06/04 12:34:04;;;;;;;1.20;1.10;;;;;;;;;;5084324;28;20240;-50
2023/06/04 12:36:30;;;;;;;1.80;1.00;;;;;;;;;;5083188;28;20664;-51
2023/06/04 12:38:59;;;;;;;1.70;1.20;;;;;;;;;;5091875;28;20244;-53
2023/06/04 12:41:26;;;;;;;1.02;0.98;;;;;;;;;;5090636;28;20238;-51
2023/06/04 12:43:52;;;;;;;0.98;0.90;;;;;;;;;;5093399;28;20226;-52
2023/06/04 12:46:19;;;;;;;1.60;0.85;;;;;;;;;;5096521;28;20237;-52
2023/06/04 12:48:47;;;;;;;1.10;1.00;;;;;;;;;;5086069;28;20313;-51
2023/06/04 12:51:14;;;;;;;2.30;1.02;;;;;;;;;;5081781;28;20248;-51
2023/06/04 12:53:41;;;;;;;1.70;1.38;;;;;;;;;;5079344;28;20687;-53
2023/06/04 12:56:08;;;;;;;3.03;1.20;;;;;;;;;;5081638;28;20230;-50
2023/06/04 12:58:34;;;;;;;0.82;0.77;;;;;;;;;;5083929;28;20234;-53
2023/06/04 13:01:01;;;;;;;0.95;0.90;;;;;;;;;;5083381;28;20226;-52
2023/06/04 13:03:28;;;;;;;1.65;1.10;;;;;;;;;;5085950;28;20324;-54
2023/06/04 13:05:56;;;;;;;0.70;0.70;;;;;;;;;;5082723;28;20234;-51
2023/06/04 13:08:23;;;;;;;1.23;1.13;;;;;;;;;;5088340;28;20258;-58
2023/06/04 13:10:51;;;;;;;1.58;1.05;;;;;;;;;;5085694;28;20239;-51
2023/06/04 13:13:17;;;;;;;1.10;1.00;;;;;;;;;;5084159;28;20249;-52
2023/06/04 13:15:44;;;;;;;3.28;0.82;;;;;;;;;;5086686;28;20243;-58
2023/06/04 13:18:11;;;;;;;1.60;1.50;;;;;;;;;;5087359;28;20230;-55
2023/06/04 13:20:38;;;;;;;3.33;2.08;;;;;;;;;;5082408;28;20218;-57
2023/06/04 13:23:06;;;;;;;2.22;1.40;;;;;;;;;;5082899;28;20241;-53
2023/06/04 13:25:33;;;;;;;1.15;1.05;;;;;;;;;;5086262;28;20633;-53
2023/06/04 13:28:00;;;;;;;1.67;1.20;;;;;;;;;;5089730;28;20231;-53
2023/06/04 13:30:26;;;;;;;1.52;0.88;;;;;;;;;;5083765;28;20235;-51
2023/06/04 13:32:53;;;;;;;3.80;1.58;;;;;;;;;;5086361;28;20242;-51
2023/06/04 13:35:19;;;;;;;1.40;1.20;;;;;;;;;;5087676;28;20322;-51
2023/06/04 13:37:46;;;;;;;1.27;1.23;;;;;;;;;;5087978;28;20230;-51
2023/06/04 13:40:14;;;;;;;0.85;0.85;;;;;;;;;;5084370;28;20226;-52
2023/06/04 13:42:42;;;;;;;1.20;1.10;;;;;;;;;;5085590;28;20333;-50
2023/06/04 13:45:09;;;;;;;3.05;1.17;;;;;;;;;;5082583;28;20639;-53
2023/06/04 13:47:35;;;;;;;1.73;1.20;;;;;;;;;;5087939;28;20234;-53
2023/06/04 13:50:02;;;;;;;1.17;1.08;;;;;;;;;;5087693;28;20233;-51
2023/06/04 13:52:29;;;;;;;1.30;1.20;;;;;;;;;;5082781;28;20264;-52
2023/06/04 13:54:55;;;;;;;1.15;1.00;;;;;;;;;;5085893;28;20238;-51
2023/06/04 13:57:23;;;;;;;1.60;1.50;;;;;;;;;;5083302;28;20238;-54
2023/06/04 13:59:49;;;;;;;1.73;1.50;;;;;;;;;;5081876;28;20648;-52
2023/06/04 14:02:16;;;;;;;3.42;1.60;;;;;;;;;;5081261;28;20238;-51
2023/06/04 14:04:42;;;;;;;1.55;1.25;;;;;;;;;;5076397;28;20298;-52
2023/06/04 14:07:09;;;;;;;5.00;1.30;;;;;;;;;;5075469;28;20314;-53
2023/06/04 14:09:35;;;;;;;1.80;1.50;;;;;;;;;;5075641;28;20260;-51
2023/06/04 14:12:02;;;;;;;1.25;1.15;;;;;;;;;;5079060;28;20309;-52
2023/06/04 14:14:36;;;;;;;1.20;1.10;;;;;;;;;;5084273;28;20227;-54
2023/06/04 14:17:02;;;;;;;1.33;1.23;;;;;;;;;;5087495;28;20241;-52
2023/06/04 14:19:29;;;;;;;1.73;1.08;;;;;;;;;;5089947;28;20226;-52
2023/06/04 14:21:55;;;;;;;2.47;1.48;;;;;;;;;;5090453;28;20234;-52
2023/06/04 14:24:22;;;;;;;1.10;1.00;;;;;;;;;;5080498;28;20712;-52
2023/06/04 14:26:48;;;;;;;3.15;1.17;;;;;;;;;;5079344;28;20222;-51
2023/06/04 14:29:15;;;;;;;1.38;1.27;;;;;;;;;;5079319;28;20294;-51
2023/06/04 14:31:45;;;;;;;3.72;1.40;;;;;;;;;;5084308;28;20242;-53
2023/06/04 14:34:11;;;;;;;2.15;1.23;;;;;;;;;;5068785;28;20314;-52
2023/06/04 14:36:38;;;;;;;1.33;1.13;;;;;;;;;;5072677;28;20238;-51
2023/06/04 14:39:04;;;;;;;1.77;1.30;;;;;;;;;;5083701;28;20238;-51
2023/06/04 14:41:31;;;;;;;1.33;1.23;;;;;;;;;;5080223;28;20245;-52
2023/06/04 14:43:57;;;;;;;1.65;1.55;;;;;;;;;;5083151;28;20234;-53